Time;durP1;ratioP1;P1;durP2;ratioP2;P2;SDS_P1;SDS_P2;PMS_P1;PMS_P2;Temp;Humidity;BMP_temperature;BMP_pressure;BME280_temperature;BME280_humidity;BME280_pressure;Samples;Min_cycle;Max_cycle;Signal;HPM_P1;HPM_P2
2022/04/23 00:00:21;;;;;;;;;0.00;0.00;;;;;;;;5100110;27;45273;-66
2022/04/23 00:02:46;;;;;;;;;0.00;0.00;;;;;;;;5100568;27;45195;-66
2022/04/23 00:05:11;;;;;;;;;0.00;0.00;;;;;;;;5100407;27;45222;-66
2022/04/23 00:07:37;;;;;;;;;0.00;0.00;;;;;;;;5100498;27;45185;-66
2022/04/23 00:10:02;;;;;;;;;0.00;0.00;;;;;;;;5099978;27;46093;-67
2022/04/23 00:12:28;;;;;;;;;0.00;0.00;;;;;;;;5100151;27;45443;-66
2022/04/23 00:14:56;;;;;;;;;0.00;0.00;;;;;;;;5100195;27;45450;-67
2022/04/23 00:17:21;;;;;;;;;0.00;0.00;;;;;;;;5100401;27;45458;-67
2022/04/23 00:19:47;;;;;;;;;0.00;0.00;;;;;;;;5100068;27;46308;-66
2022/04/23 00:22:13;;;;;;;;;0.00;0.00;;;;;;;;5099889;27;45463;-66
2022/04/23 00:24:38;;;;;;;;;0.00;0.00;;;;;;;;5100057;27;45485;-66
2022/04/23 00:27:04;;;;;;;;;0.00;0.00;;;;;;;;5100222;27;45461;-66
2022/04/23 00:29:29;;;;;;;;;1.00;0.33;;;;;;;;5099792;27;46075;-66
2022/04/23 00:31:55;;;;;;;;;0.00;0.00;;;;;;;;5099616;27;45543;-66
2022/04/23 00:34:20;;;;;;;;;0.00;0.00;;;;;;;;5098784;27;45485;-66
2022/04/23 00:36:46;;;;;;;;;0.00;0.00;;;;;;;;5099929;27;45408;-66
2022/04/23 00:39:11;;;;;;;;;0.00;0.00;;;;;;;;5099599;27;46034;-66
2022/04/23 00:41:46;;;;;;;;;0.00;0.00;;;;;;;;5099602;27;45325;-67
2022/04/23 00:44:12;;;;;;;;;0.00;0.00;;;;;;;;5099667;27;45412;-66
2022/04/23 00:46:37;;;;;;;;;0.00;0.00;;;;;;;;5099717;27;45499;-67
2022/04/23 00:49:03;;;;;;;;;0.67;0.00;;;;;;;;5099495;27;46039;-66
2022/04/23 00:51:31;;;;;;;;;0.00;0.00;;;;;;;;5099394;27;45296;-66
2022/04/23 00:53:57;;;;;;;;;0.00;0.00;;;;;;;;5099541;27;45278;-66
2022/04/23 00:56:23;;;;;;;;;0.00;0.00;;;;;;;;5099851;27;45472;-66
2022/04/23 00:58:49;;;;;;;;;0.00;0.00;;;;;;;;5099465;27;45974;-66
2022/04/23 01:01:15;;;;;;;;;0.67;0.67;;;;;;;;5099175;27;45405;-67
2022/04/23 01:03:41;;;;;;;;;0.00;0.00;;;;;;;;5099418;27;45472;-66
2022/04/23 01:06:07;;;;;;;;;0.00;0.00;;;;;;;;5099441;27;45498;-66
2022/04/23 01:08:33;;;;;;;;;0.00;0.00;;;;;;;;5099030;27;45453;-67
2022/04/23 01:10:59;;;;;;;;;0.00;0.00;;;;;;;;5099369;27;45471;-67
2022/04/23 01:13:25;;;;;;;;;1.00;0.00;;;;;;;;5099089;27;45311;-67
2022/04/23 01:15:58;;;;;;;;;0.00;0.00;;;;;;;;5099480;27;45433;-66
2022/04/23 01:18:23;;;;;;;;;0.00;0.00;;;;;;;;5099172;27;46485;-66
2022/04/23 01:20:48;;;;;;;;;0.00;0.00;;;;;;;;5097501;27;45468;-66
2022/04/23 01:23:14;;;;;;;;;0.00;0.00;;;;;;;;5098885;27;45427;-66
2022/04/23 01:25:39;;;;;;;;;0.00;0.00;;;;;;;;5099359;27;45364;-67
2022/04/23 01:28:05;;;;;;;;;0.00;0.00;;;;;;;;5098832;27;45913;-67
2022/04/23 01:30:30;;;;;;;;;0.00;0.00;;;;;;;;5098750;27;45261;-67
2022/04/23 01:32:56;;;;;;;;;0.00;0.00;;;;;;;;5098904;27;45776;-66
2022/04/23 01:35:21;;;;;;;;;0.00;0.00;;;;;;;;5099316;27;45409;-66
2022/04/23 01:37:47;;;;;;;;;0.00;0.00;;;;;;;;5098704;27;45380;-66
2022/04/23 01:40:12;;;;;;;;;0.00;0.00;;;;;;;;5098584;27;45387;-66
2022/04/23 01:42:37;;;;;;;;;0.00;0.00;;;;;;;;5098714;27;45445;-66
2022/04/23 01:45:03;;;;;;;;;0.00;0.00;;;;;;;;5098986;27;45317;-66
2022/04/23 01:47:28;;;;;;;;;0.00;0.00;;;;;;;;5098354;27;47388;-66
2022/04/23 01:49:53;;;;;;;;;0.00;0.00;;;;;;;;5098662;27;45501;-66
2022/04/23 01:52:19;;;;;;;;;0.00;0.00;;;;;;;;5098579;27;45528;-66
2022/04/23 01:54:44;;;;;;;;;0.00;0.00;;;;;;;;5098774;27;45350;-66
2022/04/23 01:57:09;;;;;;;;;0.00;0.00;;;;;;;;5098420;27;45248;-67
2022/04/23 01:59:35;;;;;;;;;0.00;0.00;;;;;;;;5098404;27;45257;-66
2022/04/23 02:02:00;;;;;;;;;0.00;0.00;;;;;;;;5097849;27;45528;-66
2022/04/23 02:04:25;;;;;;;;;0.00;0.00;;;;;;;;5098977;27;45389;-66
2022/04/23 02:06:51;;;;;;;;;0.00;0.00;;;;;;;;5098225;27;45357;-66
2022/04/23 02:09:17;;;;;;;;;0.00;0.00;;;;;;;;5098300;27;45401;-66
2022/04/23 02:11:43;;;;;;;;;0.00;0.00;;;;;;;;5098399;27;45463;-66
2022/04/23 02:14:09;;;;;;;;;0.00;0.00;;;;;;;;5098440;27;45470;-66
2022/04/23 02:16:34;;;;;;;;;0.00;0.00;;;;;;;;5097948;27;45528;-66
2022/04/23 02:19:03;;;;;;;;;0.00;0.00;;;;;;;;5098169;27;45424;-67
2022/04/23 02:21:28;;;;;;;;;0.00;0.00;;;;;;;;5098048;27;45474;-67
2022/04/23 02:23:54;;;;;;;;;0.00;0.00;;;;;;;;5098634;27;45452;-66
2022/04/23 02:26:23;;;;;;;;;0.00;0.00;;;;;;;;5097965;27;46156;-66
2022/04/23 02:28:49;;;;;;;;;0.00;0.00;;;;;;;;5098042;27;45182;-66
2022/04/23 02:31:14;;;;;;;;;0.00;0.00;;;;;;;;5097757;27;45462;-67
2022/04/23 02:33:39;;;;;;;;;0.00;0.00;;;;;;;;5098062;27;45490;-66
2022/04/23 02:36:08;;;;;;;;;0.00;0.00;;;;;;;;5097713;27;45586;-66
2022/04/23 02:38:44;;;;;;;;;0.00;0.00;;;;;;;;5097938;27;45315;-66
2022/04/23 02:41:10;;;;;;;;;0.00;0.00;;;;;;;;5097934;27;45235;-66
2022/04/23 02:43:38;;;;;;;;;0.00;0.00;;;;;;;;5097922;27;45268;-67
2022/04/23 02:46:04;;;;;;;;;0.00;0.00;;;;;;;;5097491;27;45293;-67
2022/04/23 02:48:29;;;;;;;;;0.00;0.00;;;;;;;;5097841;27;45876;-67
2022/04/23 02:50:54;;;;;;;;;0.00;0.00;;;;;;;;5098185;27;45429;-67
2022/04/23 02:53:20;;;;;;;;;0.00;0.00;;;;;;;;5097813;27;45507;-67
2022/04/23 02:55:46;;;;;;;;;0.00;0.00;;;;;;;;5097438;27;45967;-67
2022/04/23 02:58:12;;;;;;;;;0.00;0.00;;;;;;;;5097542;27;45582;-67
2022/04/23 03:00:41;;;;;;;;;0.00;0.00;;;;;;;;5097397;27;45432;-67
2022/04/23 03:03:10;;;;;;;;;0.00;0.00;;;;;;;;5097679;27;45288;-67
2022/04/23 03:05:37;;;;;;;;;0.00;0.00;;;;;;;;5097258;27;45517;-66
2022/04/23 03:08:03;;;;;;;;;0.00;0.00;;;;;;;;5096079;27;45503;-66
2022/04/23 03:10:29;;;;;;;;;0.00;0.00;;;;;;;;5098005;27;45383;-67
2022/04/23 03:12:57;;;;;;;;;0.00;0.00;;;;;;;;5097718;27;45213;-66
2022/04/23 03:15:24;;;;;;;;;0.00;0.00;;;;;;;;5100674;27;45478;-66
2022/04/23 03:17:50;;;;;;;;;0.00;0.00;;;;;;;;5099610;27;45416;-66
2022/04/23 03:20:15;;;;;;;;;0.00;0.00;;;;;;;;5101008;27;45441;-66
2022/04/23 03:22:41;;;;;;;;;0.00;0.00;;;;;;;;5101138;27;45461;-66
2022/04/23 03:25:07;;;;;;;;;0.00;0.00;;;;;;;;5100943;27;45462;-67
2022/04/23 03:27:32;;;;;;;;;0.00;0.00;;;;;;;;5100908;27;45411;-67
2022/04/23 03:30:01;;;;;;;;;0.00;0.00;;;;;;;;5101021;27;45514;-66
2022/04/23 03:32:27;;;;;;;;;0.00;0.00;;;;;;;;5101209;27;45444;-66
2022/04/23 03:34:52;;;;;;;;;0.00;0.00;;;;;;;;5100552;27;45252;-67
2022/04/23 03:37:18;;;;;;;;;0.00;0.00;;;;;;;;5100635;27;45361;-67
2022/04/23 03:39:46;;;;;;;;;21.50;17.50;;;;;;;;5100595;27;45226;-67
2022/04/23 03:42:12;;;;;;;;;46.50;37.00;;;;;;;;5100577;27;45467;-67
2022/04/23 03:44:37;;;;;;;;;5.33;5.33;;;;;;;;5100248;27;45519;-67
2022/04/23 03:47:03;;;;;;;;;13.25;12.50;;;;;;;;5100321;27;45519;-67
2022/04/23 03:49:29;;;;;;;;;5.00;4.25;;;;;;;;5100849;27;45270;-67
2022/04/23 03:51:55;;;;;;;;;17.25;16.25;;;;;;;;5100796;27;45461;-67
2022/04/23 03:54:20;;;;;;;;;6.00;5.00;;;;;;;;5100096;27;45784;-67
2022/04/23 03:56:46;;;;;;;;;4.50;4.50;;;;;;;;5100376;27;45522;-67
2022/04/23 03:59:11;;;;;;;;;4.25;4.00;;;;;;;;5100326;27;45304;-67
2022/04/23 04:01:36;;;;;;;;;0.67;0.67;;;;;;;;5100411;27;45483;-67
2022/04/23 04:04:02;;;;;;;;;1.00;1.00;;;;;;;;5100426;27;45286;-67
2022/04/23 04:06:27;;;;;;;;;1.00;1.00;;;;;;;;5098801;27;45445;-67
2022/04/23 04:08:53;;;;;;;;;1.00;1.00;;;;;;;;5100450;27;45657;-67
2022/04/23 04:11:18;;;;;;;;;0.00;0.00;;;;;;;;5100469;27;45287;-67
2022/04/23 04:13:44;;;;;;;;;0.00;0.00;;;;;;;;5099902;27;45475;-67
2022/04/23 04:16:09;;;;;;;;;0.00;0.00;;;;;;;;5099965;27;45374;-67
2022/04/23 04:18:35;;;;;;;;;1.00;0.00;;;;;;;;5100328;27;45342;-67
2022/04/23 04:21:00;;;;;;;;;1.00;0.00;;;;;;;;5100534;27;45444;-67
2022/04/23 04:23:26;;;;;;;;;0.00;0.00;;;;;;;;5099805;27;45267;-67
2022/04/23 04:25:52;;;;;;;;;0.00;0.00;;;;;;;;5099342;27;45514;-67
2022/04/23 04:28:17;;;;;;;;;0.00;0.00;;;;;;;;5099988;27;45442;-67
2022/04/23 04:33:27;;;;;;;;;0.00;0.00;;;;;;;;5099798;27;45482;-67
2022/04/23 04:35:52;;;;;;;;;0.00;0.00;;;;;;;;5099811;27;45447;-67
2022/04/23 04:38:17;;;;;;;;;0.00;0.00;;;;;;;;5099852;27;45475;-67
2022/04/23 04:40:43;;;;;;;;;0.00;0.00;;;;;;;;5099999;27;45327;-67
2022/04/23 04:43:08;;;;;;;;;0.00;0.00;;;;;;;;5099433;27;45469;-67
2022/04/23 04:45:33;;;;;;;;;0.00;0.00;;;;;;;;5099837;27;45505;-66
2022/04/23 04:47:59;;;;;;;;;0.00;0.00;;;;;;;;5099756;27;45402;-67
2022/04/23 04:50:24;;;;;;;;;0.00;0.00;;;;;;;;5099878;27;45333;-67
2022/04/23 04:52:49;;;;;;;;;0.00;0.00;;;;;;;;5099320;27;46185;-67
2022/04/23 04:55:15;;;;;;;;;0.00;0.00;;;;;;;;5099424;27;45421;-67
2022/04/23 04:57:41;;;;;;;;;0.00;0.00;;;;;;;;5099443;27;45560;-67
2022/04/23 05:00:07;;;;;;;;;0.00;0.00;;;;;;;;5099993;27;45389;-67
2022/04/23 05:02:32;;;;;;;;;0.00;0.00;;;;;;;;5099328;27;46094;-66
2022/04/23 05:04:57;;;;;;;;;0.00;0.00;;;;;;;;5099264;27;45579;-67
2022/04/23 05:07:23;;;;;;;;;0.00;0.00;;;;;;;;5099446;27;45336;-66
2022/04/23 05:09:48;;;;;;;;;0.00;0.00;;;;;;;;5099304;27;45392;-66
2022/04/23 05:12:14;;;;;;;;;0.00;0.00;;;;;;;;5098810;27;46033;-67
2022/04/23 05:14:39;;;;;;;;;0.00;0.00;;;;;;;;5098968;27;45347;-66
2022/04/23 05:17:04;;;;;;;;;0.00;0.00;;;;;;;;5099407;27;45445;-66
2022/04/23 05:19:29;;;;;;;;;0.00;0.00;;;;;;;;5099368;27;45637;-66
2022/04/23 05:21:55;;;;;;;;;4.00;4.00;;;;;;;;5098711;27;45420;-66
2022/04/23 05:24:20;;;;;;;;;0.00;0.00;;;;;;;;5099060;27;45329;-66
2022/04/23 05:26:46;;;;;;;;;0.00;0.00;;;;;;;;5098969;27;45365;-66
2022/04/23 05:29:11;;;;;;;;;0.00;0.00;;;;;;;;5099206;27;45224;-66
2022/04/23 05:31:38;;;;;;;;;0.00;0.00;;;;;;;;5098882;27;46098;-66
2022/04/23 05:34:04;;;;;;;;;9.50;8.50;;;;;;;;5098900;27;45630;-66
2022/04/23 05:36:29;;;;;;;;;3.25;2.50;;;;;;;;5097906;27;45535;-67
2022/04/23 05:38:55;;;;;;;;;2.00;2.00;;;;;;;;5099102;27;45476;-67
2022/04/23 05:41:20;;;;;;;;;1.00;1.00;;;;;;;;5098429;27;46176;-67
2022/04/23 05:43:46;;;;;;;;;0.25;0.25;;;;;;;;5098666;27;45463;-66
2022/04/23 05:46:11;;;;;;;;;0.75;0.00;;;;;;;;5098793;27;45741;-66
2022/04/23 05:48:37;;;;;;;;;8.25;7.75;;;;;;;;5099239;27;45495;-66
2022/04/23 05:51:02;;;;;;;;;2.75;1.75;;;;;;;;5098255;27;45581;-67
2022/04/23 05:53:27;;;;;;;;;2.25;1.50;;;;;;;;5098503;27;45442;-67
2022/04/23 05:55:56;;;;;;;;;5.75;5.25;;;;;;;;5098575;27;45558;-66
2022/04/23 05:58:22;;;;;;;;;4.00;4.00;;;;;;;;5098817;27;45255;-66
2022/04/23 06:00:47;;;;;;;;;2.00;2.00;;;;;;;;5098312;27;45528;-67
2022/04/23 06:03:12;;;;;;;;;2.00;2.00;;;;;;;;5098249;27;45427;-66
2022/04/23 06:05:38;;;;;;;;;0.25;0.00;;;;;;;;5098843;27;45549;-67
2022/04/23 06:08:04;;;;;;;;;1.00;1.00;;;;;;;;5098670;27;45327;-66
2022/04/23 06:10:29;;;;;;;;;0.00;0.00;;;;;;;;5098140;27;45487;-66
2022/04/23 06:12:54;;;;;;;;;14.25;14.00;;;;;;;;5098120;27;45413;-66
2022/04/23 06:15:20;;;;;;;;;2.00;1.00;;;;;;;;5098218;27;45251;-66
2022/04/23 06:17:46;;;;;;;;;1.00;1.00;;;;;;;;5098442;27;45283;-67
2022/04/23 06:20:12;;;;;;;;;0.00;0.00;;;;;;;;5097998;27;45303;-67
2022/04/23 06:22:37;;;;;;;;;0.00;0.00;;;;;;;;5098053;27;45457;-66
2022/04/23 06:25:03;;;;;;;;;3.50;3.25;;;;;;;;5097948;27;45466;-66
2022/04/23 06:27:30;;;;;;;;;7.75;7.75;;;;;;;;5098174;27;45273;-67
2022/04/23 06:29:55;;;;;;;;;1.00;1.00;;;;;;;;5097841;27;45332;-67
2022/04/23 06:32:21;;;;;;;;;4.25;3.75;;;;;;;;5097610;27;45592;-67
2022/04/23 06:34:46;;;;;;;;;1.00;1.00;;;;;;;;5097976;27;45327;-67
2022/04/23 06:37:12;;;;;;;;;1.00;1.00;;;;;;;;5098428;27;45372;-66
2022/04/23 06:39:37;;;;;;;;;4.00;4.00;;;;;;;;5098015;27;45559;-67
2022/04/23 06:42:03;;;;;;;;;1.67;1.67;;;;;;;;5097839;27;46052;-66
2022/04/23 06:44:28;;;;;;;;;1.00;1.00;;;;;;;;5097935;27;45422;-67
2022/04/23 06:46:54;;;;;;;;;1.00;1.00;;;;;;;;5097916;27;45329;-67
2022/04/23 06:49:19;;;;;;;;;1.00;1.00;;;;;;;;5101052;27;45437;-66
2022/04/23 06:51:45;;;;;;;;;0.00;0.00;;;;;;;;5101189;27;45490;-67
2022/04/23 06:54:10;;;;;;;;;1.00;1.00;;;;;;;;5101760;27;45385;-68
2022/04/23 06:56:37;;;;;;;;;3.00;3.00;;;;;;;;5101573;27;45611;-68
2022/04/23 06:59:02;;;;;;;;;6.00;6.00;;;;;;;;5100926;27;46126;-67
2022/04/23 07:01:27;;;;;;;;;2.00;2.00;;;;;;;;5100912;27;45471;-67
2022/04/23 07:03:53;;;;;;;;;0.00;0.00;;;;;;;;5101147;27;45290;-67
2022/04/23 07:06:18;;;;;;;;;3.75;3.75;;;;;;;;5101471;27;45433;-68
2022/04/23 07:08:44;;;;;;;;;4.25;4.25;;;;;;;;5101287;27;45449;-68
2022/04/23 07:11:12;;;;;;;;;5.00;4.00;;;;;;;;5101288;27;45401;-68
2022/04/23 07:13:38;;;;;;;;;3.33;3.33;;;;;;;;5101027;27;45482;-67
2022/04/23 07:16:04;;;;;;;;;3.00;3.00;;;;;;;;5101125;27;45484;-67
2022/04/23 07:18:33;;;;;;;;;7.00;7.00;;;;;;;;5100729;27;45301;-67
2022/04/23 07:20:59;;;;;;;;;1.00;0.00;;;;;;;;5100906;27;45293;-67
2022/04/23 07:26:08;;;;;;;;;1.00;1.00;;;;;;;;5101077;27;45275;-67
2022/04/23 07:28:34;;;;;;;;;0.00;0.00;;;;;;;;5100520;27;45547;-67
2022/04/23 07:31:00;;;;;;;;;0.00;0.00;;;;;;;;5100388;27;45294;-67
2022/04/23 07:38:53;;;;;;;;;1.00;1.00;;;;;;;;5100278;27;45444;-67
2022/04/23 07:41:18;;;;;;;;;0.00;0.00;;;;;;;;5100249;27;45364;-67
2022/04/23 07:43:44;;;;;;;;;1.00;0.00;;;;;;;;5101046;27;45292;-67
2022/04/23 07:46:09;;;;;;;;;3.00;3.00;;;;;;;;5100717;27;45395;-67
2022/04/23 07:48:34;;;;;;;;;1.00;0.67;;;;;;;;5100291;27;46057;-67
2022/04/23 07:51:00;;;;;;;;;2.00;2.00;;;;;;;;5100357;27;45401;-67
2022/04/23 07:53:25;;;;;;;;;2.00;2.00;;;;;;;;5100446;27;45405;-67
2022/04/23 07:55:51;;;;;;;;;3.00;3.00;;;;;;;;5100379;27;45471;-68
2022/04/23 07:58:16;;;;;;;;;2.00;2.00;;;;;;;;5100124;27;45396;-67
2022/04/23 08:00:44;;;;;;;;;2.00;2.00;;;;;;;;5099424;27;45247;-67
2022/04/23 08:03:09;;;;;;;;;3.00;3.00;;;;;;;;5100142;27;45304;-67
2022/04/23 08:05:35;;;;;;;;;2.33;2.00;;;;;;;;5100049;27;45518;-67
2022/04/23 08:08:01;;;;;;;;;5.33;4.67;;;;;;;;5099760;27;45575;-67
2022/04/23 08:10:26;;;;;;;;;2.00;2.00;;;;;;;;5099923;27;45315;-68
2022/04/23 08:12:54;;;;;;;;;1.33;1.33;;;;;;;;5100127;27;45326;-67
2022/04/23 08:15:19;;;;;;;;;2.00;1.00;;;;;;;;5100254;27;45487;-67
2022/04/23 08:17:45;;;;;;;;;2.00;1.33;;;;;;;;5100080;27;45417;-67
2022/04/23 08:20:11;;;;;;;;;1.00;1.00;;;;;;;;5099731;27;45554;-67
2022/04/23 08:22:36;;;;;;;;;2.33;2.00;;;;;;;;5099867;27;45566;-67
2022/04/23 08:25:01;;;;;;;;;2.00;1.33;;;;;;;;5099967;27;45546;-67
2022/04/23 08:27:27;;;;;;;;;1.00;1.00;;;;;;;;5099521;27;45415;-67
2022/04/23 08:32:36;;;;;;;;;2.00;1.00;;;;;;;;5099616;27;45415;-67
2022/04/23 08:35:02;;;;;;;;;1.00;0.00;;;;;;;;5099866;27;45403;-67
2022/04/23 08:37:27;;;;;;;;;1.67;1.00;;;;;;;;5099535;27;46169;-67
2022/04/23 08:39:53;;;;;;;;;2.00;1.00;;;;;;;;5099446;27;45254;-67
2022/04/23 08:42:18;;;;;;;;;3.00;2.00;;;;;;;;5098409;27;45572;-67
2022/04/23 08:44:44;;;;;;;;;3.00;2.00;;;;;;;;5099669;27;45434;-67
2022/04/23 08:47:12;;;;;;;;;2.00;2.00;;;;;;;;5099222;27;45925;-67
2022/04/23 08:49:41;;;;;;;;;2.00;2.00;;;;;;;;5099376;27;45423;-67
2022/04/23 08:52:18;;;;;;;;;0.00;0.00;;;;;;;;5099342;27;45615;-67
2022/04/23 08:54:44;;;;;;;;;0.00;0.00;;;;;;;;5099548;27;45455;-67
2022/04/23 08:57:09;;;;;;;;;0.00;0.00;;;;;;;;5098801;27;46078;-67
2022/04/23 08:59:35;;;;;;;;;0.00;0.00;;;;;;;;5099274;27;45450;-67
2022/04/23 09:02:01;;;;;;;;;0.00;0.00;;;;;;;;5099243;27;45388;-67
2022/04/23 09:04:26;;;;;;;;;8.33;7.33;;;;;;;;5099387;27;45236;-67
2022/04/23 09:06:51;;;;;;;;;0.00;0.00;;;;;;;;5098676;27;46028;-67
2022/04/23 09:09:19;;;;;;;;;1.67;1.00;;;;;;;;5099363;27;45378;-67
2022/04/23 09:11:49;;;;;;;;;0.00;0.00;;;;;;;;5097818;27;45507;-67
2022/04/23 09:14:27;;;;;;;;;0.00;0.00;;;;;;;;5099100;27;45417;-67
2022/04/23 09:25:13;;;;;;;;;0.33;0.33;;;;;;;;5098783;27;45395;-68
2022/04/23 09:27:42;;;;;;;;;0.00;0.00;;;;;;;;5098476;27;46054;-68
2022/04/23 09:30:08;;;;;;;;;2.00;1.00;;;;;;;;5098650;27;45569;-67
2022/04/23 09:32:34;;;;;;;;;0.00;0.00;;;;;;;;5098724;27;45379;-68
2022/04/23 09:35:17;;;;;;;;;0.00;0.00;;;;;;;;5098969;27;45223;-68
2022/04/23 09:40:27;;;;;;;;;0.00;0.00;;;;;;;;5098527;27;45403;-68
2022/04/23 09:43:00;;;;;;;;;1.00;0.00;;;;;;;;5098837;27;45353;-68
2022/04/23 09:45:27;;;;;;;;;0.00;0.00;;;;;;;;5098615;27;45310;-68
2022/04/23 09:47:52;;;;;;;;;0.00;0.00;;;;;;;;5098396;27;46275;-68
2022/04/23 09:50:18;;;;;;;;;0.00;0.00;;;;;;;;5098322;27;45429;-67
2022/04/23 09:52:45;;;;;;;;;0.00;0.00;;;;;;;;5098630;27;45284;-67
2022/04/23 09:55:11;;;;;;;;;0.00;0.00;;;;;;;;5098633;27;45336;-68
2022/04/23 09:57:38;;;;;;;;;0.00;0.00;;;;;;;;5098101;27;45455;-68
2022/04/23 10:00:04;;;;;;;;;1.00;1.00;;;;;;;;5098217;27;45293;-68
2022/04/23 10:02:30;;;;;;;;;0.00;0.00;;;;;;;;5097864;27;45329;-67
2022/04/23 10:04:56;;;;;;;;;6.00;6.00;;;;;;;;5097988;27;45504;-67
2022/04/23 10:07:25;;;;;;;;;0.00;0.00;;;;;;;;5097896;27;46269;-67
2022/04/23 10:09:50;;;;;;;;;0.00;0.00;;;;;;;;5097700;27;45380;-67
2022/04/23 10:12:17;;;;;;;;;0.00;0.00;;;;;;;;5095438;27;45539;-66
2022/04/23 10:14:46;;;;;;;;;1.00;1.00;;;;;;;;5097236;27;45507;-68
2022/04/23 10:17:14;;;;;;;;;0.00;0.00;;;;;;;;5097439;27;46415;-67
2022/04/23 10:19:40;;;;;;;;;0.00;0.00;;;;;;;;5096608;27;45413;-67
2022/04/23 10:22:29;;;;;;;;;1.00;0.00;;;;;;;;5095304;27;45565;-67
2022/04/23 10:24:54;;;;;;;;;0.00;0.00;;;;;;;;5096280;27;45826;-68
2022/04/23 10:27:25;;;;;;;;;0.00;0.00;;;;;;;;5096107;27;46017;-67
2022/04/23 10:29:53;;;;;;;;;0.00;0.00;;;;;;;;5096004;27;45475;-67
2022/04/23 10:32:22;;;;;;;;;2.00;1.00;;;;;;;;5096910;27;45392;-69
2022/04/23 10:34:48;;;;;;;;;0.00;0.00;;;;;;;;5092536;27;45496;-69
2022/04/23 10:37:30;;;;;;;;;0.00;0.00;;;;;;;;5095225;27;46317;-68
2022/04/23 10:39:55;;;;;;;;;1.00;0.33;;;;;;;;5094667;27;45365;-67
2022/04/23 10:42:23;;;;;;;;;0.00;0.00;;;;;;;;5095977;27;45443;-68
2022/04/23 10:44:50;;;;;;;;;0.00;0.00;;;;;;;;5096174;27;45458;-67
2022/04/23 10:47:30;;;;;;;;;1.00;1.00;;;;;;;;5095614;27;45468;-67
2022/04/23 10:50:24;;;;;;;;;0.00;0.00;;;;;;;;5094979;27;46076;-67
2022/04/23 10:52:51;;;;;;;;;1.00;0.00;;;;;;;;5097935;27;45824;-67
2022/04/23 10:55:17;;;;;;;;;0.00;0.00;;;;;;;;5097358;27;46130;-67
2022/04/23 10:57:52;;;;;;;;;0.00;0.00;;;;;;;;5097083;27;45997;-67
2022/04/23 11:00:19;;;;;;;;;1.00;0.00;;;;;;;;5097207;27;45413;-66
2022/04/23 11:02:55;;;;;;;;;0.00;0.00;;;;;;;;5097182;27;45161;-67
2022/04/23 11:13:55;;;;;;;;;0.00;0.00;;;;;;;;5097614;27;45214;-67
2022/04/23 11:16:22;;;;;;;;;0.00;0.00;;;;;;;;5097439;27;45568;-67
2022/04/23 11:18:54;;;;;;;;;0.00;0.00;;;;;;;;5097039;27;45538;-67
2022/04/23 11:21:24;;;;;;;;;1.00;0.00;;;;;;;;5097024;27;45588;-67
2022/04/23 11:23:50;;;;;;;;;0.00;0.00;;;;;;;;5096898;27;45372;-67
2022/04/23 11:26:17;;;;;;;;;0.00;0.00;;;;;;;;5097243;27;45384;-67
2022/04/23 11:28:43;;;;;;;;;0.00;0.00;;;;;;;;5096844;27;46124;-67
2022/04/23 11:31:12;;;;;;;;;0.00;0.00;;;;;;;;5096758;27;45849;-67
2022/04/23 11:33:49;;;;;;;;;12.75;12.00;;;;;;;;5097170;27;45251;-67
2022/04/23 11:36:14;;;;;;;;;3.00;2.00;;;;;;;;5100464;27;45234;-67
2022/04/23 11:38:41;;;;;;;;;0.00;0.00;;;;;;;;5100331;27;45984;-66
2022/04/23 11:41:07;;;;;;;;;0.67;0.00;;;;;;;;5100517;27;45394;-68
2022/04/23 11:43:37;;;;;;;;;1.00;0.00;;;;;;;;5100352;27;45525;-66
2022/04/23 11:46:07;;;;;;;;;1.00;0.00;;;;;;;;5100652;27;45489;-66
2022/04/23 11:48:39;;;;;;;;;0.33;0.33;;;;;;;;5100092;27;45497;-67
2022/04/23 11:51:07;;;;;;;;;0.33;0.00;;;;;;;;5100176;27;45463;-67
2022/04/23 11:53:53;;;;;;;;;5.33;3.67;;;;;;;;5100202;27;45457;-67
2022/04/23 11:56:20;;;;;;;;;1.00;0.67;;;;;;;;5100151;27;45500;-67
2022/04/23 11:58:45;;;;;;;;;26.00;23.25;;;;;;;;5099964;27;45426;-67
2022/04/23 12:01:13;;;;;;;;;6.33;5.00;;;;;;;;5099828;27;45406;-67
2022/04/23 12:03:47;;;;;;;;;0.00;0.00;;;;;;;;5100155;27;45528;-67
2022/04/23 12:06:12;;;;;;;;;7.00;6.33;;;;;;;;5100196;27;45397;-67
2022/04/23 12:08:37;;;;;;;;;10.33;8.33;;;;;;;;5099490;27;45495;-68
2022/04/23 12:11:03;;;;;;;;;0.00;0.00;;;;;;;;5100017;27;45363;-67
2022/04/23 12:13:28;;;;;;;;;1.33;1.33;;;;;;;;5100510;27;45344;-68
2022/04/23 12:15:53;;;;;;;;;1.00;1.00;;;;;;;;5100010;27;45300;-67
2022/04/23 12:18:19;;;;;;;;;0.00;0.00;;;;;;;;5099852;27;46155;-67
2022/04/23 12:20:44;;;;;;;;;1.00;1.00;;;;;;;;5099866;27;45384;-69
2022/04/23 12:23:10;;;;;;;;;0.67;0.00;;;;;;;;5100089;27;45452;-68
2022/04/23 12:25:36;;;;;;;;;1.67;1.67;;;;;;;;5100303;27;45504;-67
2022/04/23 12:42:01;;;;;;;;;1.00;1.00;;;;;;;;5099347;27;45258;-67
2022/04/23 12:44:37;;;;;;;;;1.33;0.67;;;;;;;;5099918;27;45414;-67
2022/04/23 12:47:07;;;;;;;;;0.67;0.67;;;;;;;;5099371;27;45346;-67
2022/04/23 12:49:50;;;;;;;;;0.33;0.00;;;;;;;;5099043;27;45531;-67
2022/04/23 12:52:20;;;;;;;;;0.00;0.00;;;;;;;;5099157;27;45204;-67
2022/04/23 12:55:04;;;;;;;;;1.00;0.67;;;;;;;;5099132;27;45467;-67
2022/04/23 12:57:29;;;;;;;;;0.00;0.00;;;;;;;;5099655;27;45456;-67
2022/04/23 12:59:54;;;;;;;;;0.67;0.00;;;;;;;;5098713;27;45529;-67
2022/04/23 13:02:20;;;;;;;;;0.33;0.00;;;;;;;;5098867;27;45471;-68
2022/04/23 13:04:45;;;;;;;;;5.00;4.33;;;;;;;;5099089;27;46139;-67
2022/04/23 13:09:54;;;;;;;;;23.25;20.50;;;;;;;;5098770;27;45285;-67
2022/04/23 13:12:20;;;;;;;;;15.00;14.75;;;;;;;;5098456;27;45471;-67
2022/04/23 13:14:45;;;;;;;;;10.67;8.67;;;;;;;;5098844;27;45292;-68
2022/04/23 13:17:10;;;;;;;;;3.67;3.67;;;;;;;;5098896;27;45404;-68
2022/04/23 13:19:36;;;;;;;;;2.00;2.00;;;;;;;;5098597;27;46055;-68
2022/04/23 13:22:01;;;;;;;;;3.67;2.67;;;;;;;;5099141;27;45266;-68
2022/04/23 13:24:27;;;;;;;;;2.67;1.67;;;;;;;;5098791;27;45488;-68
2022/04/23 13:26:53;;;;;;;;;1.00;1.00;;;;;;;;5099100;27;45335;-68
2022/04/23 13:29:18;;;;;;;;;0.67;0.67;;;;;;;;5098745;27;45389;-68
2022/04/23 13:31:43;;;;;;;;;1.33;0.00;;;;;;;;5098507;27;45365;-68
2022/04/23 13:34:09;;;;;;;;;1.00;0.33;;;;;;;;5098526;27;45558;-68
2022/04/23 13:36:34;;;;;;;;;0.00;0.00;;;;;;;;5099222;27;45802;-68
2022/04/23 13:38:59;;;;;;;;;1.67;0.00;;;;;;;;5098975;27;45877;-68
2022/04/23 13:41:25;;;;;;;;;3.00;0.00;;;;;;;;5098218;27;45325;-68
2022/04/23 13:43:51;;;;;;;;;0.00;0.00;;;;;;;;5098618;27;45514;-68
2022/04/23 13:46:16;;;;;;;;;2.00;2.00;;;;;;;;5098790;27;45478;-68
2022/04/23 13:48:43;;;;;;;;;0.00;0.00;;;;;;;;5098296;27;46144;-68
2022/04/23 13:51:08;;;;;;;;;3.33;2.00;;;;;;;;5098187;27;45392;-68
2022/04/23 13:53:34;;;;;;;;;0.00;0.00;;;;;;;;5098473;27;45507;-67
2022/04/23 13:55:59;;;;;;;;;1.33;0.00;;;;;;;;5098696;27;45278;-68
2022/04/23 13:58:24;;;;;;;;;1.00;0.00;;;;;;;;5097313;27;45417;-68
2022/04/23 14:00:50;;;;;;;;;1.00;1.00;;;;;;;;5098049;27;45406;-67
2022/04/23 14:11:27;;;;;;;;;1.00;0.00;;;;;;;;5097914;27;45498;-68
2022/04/23 14:13:52;;;;;;;;;1.00;0.33;;;;;;;;5097936;27;45238;-67
2022/04/23 14:16:18;;;;;;;;;1.00;0.00;;;;;;;;5098034;27;45531;-67
2022/04/23 14:18:43;;;;;;;;;1.00;0.67;;;;;;;;5097741;27;45833;-68
2022/04/23 14:21:09;;;;;;;;;0.00;0.00;;;;;;;;5097879;27;45433;-68
2022/04/23 14:23:34;;;;;;;;;0.00;0.00;;;;;;;;5098001;27;45338;-67
2022/04/23 14:26:00;;;;;;;;;0.00;0.00;;;;;;;;5098396;27;45215;-67
2022/04/23 14:28:25;;;;;;;;;2.00;0.67;;;;;;;;5097297;27;45338;-68
2022/04/23 14:30:51;;;;;;;;;26.75;25.75;;;;;;;;5097162;27;45467;-68
2022/04/23 14:33:16;;;;;;;;;1.00;1.00;;;;;;;;5097596;27;45756;-68
2022/04/23 14:35:41;;;;;;;;;1.00;1.00;;;;;;;;5097573;27;45432;-68
2022/04/23 14:38:07;;;;;;;;;2.00;1.33;;;;;;;;5087699;27;45892;-80
2022/04/23 14:40:34;;;;;;;;;1.00;1.00;;;;;;;;5081204;27;45512;-68
2022/04/23 14:43:00;;;;;;;;;0.00;0.00;;;;;;;;5076844;27;45332;-68
2022/04/23 14:45:28;;;;;;;;;1.00;1.00;;;;;;;;5079293;27;45466;-68
2022/04/23 14:47:54;;;;;;;;;1.33;1.00;;;;;;;;5083586;27;46263;-68
2022/04/23 14:50:19;;;;;;;;;1.00;1.00;;;;;;;;5085755;27;45459;-69
2022/04/23 14:55:29;;;;;;;;;0.67;0.67;;;;;;;;5077586;27;45481;-70
2022/04/23 14:57:54;;;;;;;;;1.00;0.67;;;;;;;;5078743;27;45477;-67
2022/04/23 15:00:20;;;;;;;;;0.00;0.00;;;;;;;;5075939;27;45376;-67
2022/04/23 15:02:45;;;;;;;;;2.00;1.00;;;;;;;;5077723;27;45402;-67
2022/04/23 15:05:11;;;;;;;;;1.67;1.00;;;;;;;;5076050;27;45458;-68
2022/04/23 15:07:38;;;;;;;;;1.00;1.00;;;;;;;;5076921;27;45430;-67
2022/04/23 15:10:04;;;;;;;;;1.00;1.00;;;;;;;;5083230;27;45368;-68
2022/04/23 15:12:30;;;;;;;;;2.00;1.00;;;;;;;;5078581;27;45519;-67
2022/04/23 15:14:55;;;;;;;;;2.33;2.00;;;;;;;;5078821;27;45463;-67
2022/04/23 15:17:20;;;;;;;;;1.00;0.00;;;;;;;;5078681;27;45406;-68
2022/04/23 15:19:47;;;;;;;;;0.00;0.00;;;;;;;;5079353;27;45370;-66
2022/04/23 15:22:13;;;;;;;;;1.00;0.00;;;;;;;;5079341;27;45358;-68
2022/04/23 15:24:38;;;;;;;;;0.67;0.67;;;;;;;;5079432;27;45464;-68
2022/04/23 15:27:05;;;;;;;;;0.00;0.00;;;;;;;;5080056;27;46011;-68
2022/04/23 15:29:30;;;;;;;;;0.00;0.00;;;;;;;;5078351;27;45492;-68
2022/04/23 15:31:55;;;;;;;;;0.67;0.67;;;;;;;;5080637;27;45516;-69
2022/04/23 15:34:21;;;;;;;;;1.67;1.67;;;;;;;;5080846;27;45455;-67
2022/04/23 15:36:46;;;;;;;;;0.67;0.00;;;;;;;;5077724;27;46037;-66
2022/04/23 15:39:12;;;;;;;;;1.67;1.67;;;;;;;;5079322;27;45916;-67